Aérodrome :
LOGIN :

S'inscrire | Disclaimer

   EN    FR    IT 

 










Légende :    VFR   VFR Marginal   IFR   IFR Intensif   IFR Très Intensif
Visi : 
Plafond : 
>= 8 km
>= 3000ft
5 à 8 km
1000 à 3000 ft
1500m à 5 km
500 à 1000 ft
800 à 1500m
200 à 500 ft
< 800m
< 200 ft
Symboles :   Orages  Brouillard  Fortes neiges  Fortes précipitations  Vent > 20 kt
SIGMETs :   Divers  Orages  Givrage  Turbulence  Onde Orograph.  Cendres Volcan.






- Altitude de l'aérodrome : 38 ft
- Code IATA : ADX


EGQL - RAF Leuchars

DERNIER METAR :
  • 200950Z 27004KT 0900 FG OVC002 02/02 Q0980 AMB

METARs EXPIRÉS :
  • 200850Z 26004KT 2500 -DZ BKN004 BKN009 02/02 Q0980 YLO2
  • 200750Z 30004KT 6000 BR OVC004 02/02 Q0981 YLO2

TAF AMD TAF EGQL
Valide du 20 à 10h jusqu'au 20 à 18h UTC


201015Z 2010/2018 28005KT 9999 BKN016
TEMPO 2010/2018 4000 RADZ BKN010
PROB40
TEMPO 2010/2018 0800 FG BKN002



MET'MAP, la Météo Aéronautique d'un coup d'oeil ! - Copyright ORBIFLY Décembre 2007 - Disclaimer

ORBIFLY MET'MAP TEAM :

Programmation & Développement : Alexandra Zaïnal
Sur une idée originale de : Baudouin d'Aumeries
Assistance à la programmation : Marc-Olivier Méhu
Soutien technique & logistique : Manuel Goepfert

Contact : metmap@orbifly.com




SOURCES & CREDITS :

   NOAA